sensor_id;sensor_type;location;lat;lon;timestamp;P1;durP1;ratioP1;P2;durP2;ratioP2
12433;SDS011;6281;49.038;8.372;2022-12-20T00:00:46;28.80;;;20.43;;
12433;SDS011;6281;49.038;8.372;2022-12-20T00:03:13;30.67;;;20.23;;
12433;SDS011;6281;49.038;8.372;2022-12-20T00:05:41;28.20;;;20.27;;
12433;SDS011;6281;49.038;8.372;2022-12-20T00:08:08;30.97;;;20.10;;
12433;SDS011;6281;49.038;8.372;2022-12-20T00:10:36;33.00;;;21.50;;
12433;SDS011;6281;49.038;8.372;2022-12-20T00:13:03;31.30;;;20.83;;
12433;SDS011;6281;49.038;8.372;2022-12-20T00:15:32;30.87;;;20.63;;
12433;SDS011;6281;49.038;8.372;2022-12-20T00:17:59;27.97;;;20.90;;
12433;SDS011;6281;49.038;8.372;2022-12-20T00:20:26;30.60;;;21.27;;
12433;SDS011;6281;49.038;8.372;2022-12-20T00:22:53;30.90;;;20.87;;
12433;SDS011;6281;49.038;8.372;2022-12-20T00:25:21;33.33;;;22.47;;
12433;SDS011;6281;49.038;8.372;2022-12-20T00:27:48;33.20;;;22.40;;
12433;SDS011;6281;49.038;8.372;2022-12-20T00:30:16;29.87;;;21.83;;
12433;SDS011;6281;49.038;8.372;2022-12-20T00:32:45;30.90;;;20.10;;
12433;SDS011;6281;49.038;8.372;2022-12-20T00:35:12;29.67;;;20.97;;
12433;SDS011;6281;49.038;8.372;2022-12-20T00:37:39;30.93;;;21.27;;
12433;SDS011;6281;49.038;8.372;2022-12-20T00:40:19;29.70;;;20.13;;
12433;SDS011;6281;49.038;8.372;2022-12-20T00:42:46;30.13;;;20.93;;
12433;SDS011;6281;49.038;8.372;2022-12-20T00:45:13;31.03;;;20.17;;
12433;SDS011;6281;49.038;8.372;2022-12-20T00:47:40;32.27;;;20.53;;
12433;SDS011;6281;49.038;8.372;2022-12-20T00:50:09;30.53;;;20.60;;
12433;SDS011;6281;49.038;8.372;2022-12-20T00:52:36;28.83;;;19.10;;
12433;SDS011;6281;49.038;8.372;2022-12-20T00:55:03;29.60;;;19.93;;
12433;SDS011;6281;49.038;8.372;2022-12-20T00:57:30;32.53;;;20.33;;
12433;SDS011;6281;49.038;8.372;2022-12-20T00:59:57;27.53;;;18.60;;
12433;SDS011;6281;49.038;8.372;2022-12-20T01:02:24;23.13;;;17.87;;
12433;SDS011;6281;49.038;8.372;2022-12-20T01:04:51;27.97;;;19.73;;
12433;SDS011;6281;49.038;8.372;2022-12-20T01:07:19;29.10;;;19.80;;
12433;SDS011;6281;49.038;8.372;2022-12-20T01:09:47;29.63;;;19.60;;
12433;SDS011;6281;49.038;8.372;2022-12-20T01:12:14;24.53;;;18.97;;
12433;SDS011;6281;49.038;8.372;2022-12-20T01:14:41;26.77;;;19.30;;
12433;SDS011;6281;49.038;8.372;2022-12-20T01:17:08;27.03;;;18.47;;
12433;SDS011;6281;49.038;8.372;2022-12-20T01:19:35;29.63;;;19.70;;
12433;SDS011;6281;49.038;8.372;2022-12-20T01:22:02;25.60;;;18.53;;
12433;SDS011;6281;49.038;8.372;2022-12-20T01:24:30;26.50;;;19.23;;
12433;SDS011;6281;49.038;8.372;2022-12-20T01:26:57;25.83;;;19.17;;
12433;SDS011;6281;49.038;8.372;2022-12-20T01:29:24;25.30;;;18.10;;
12433;SDS011;6281;49.038;8.372;2022-12-20T01:31:51;28.63;;;19.40;;
12433;SDS011;6281;49.038;8.372;2022-12-20T01:34:18;26.63;;;18.83;;
12433;SDS011;6281;49.038;8.372;2022-12-20T01:36:45;25.43;;;18.13;;
12433;SDS011;6281;49.038;8.372;2022-12-20T01:39:14;28.80;;;19.23;;
12433;SDS011;6281;49.038;8.372;2022-12-20T01:41:43;26.87;;;18.87;;
12433;SDS011;6281;49.038;8.372;2022-12-20T01:47:15;22.40;;;17.67;;
12433;SDS011;6281;49.038;8.372;2022-12-20T01:49:43;25.73;;;17.33;;
12433;SDS011;6281;49.038;8.372;2022-12-20T01:52:14;23.47;;;17.90;;
12433;SDS011;6281;49.038;8.372;2022-12-20T01:54:45;26.67;;;18.07;;
12433;SDS011;6281;49.038;8.372;2022-12-20T01:57:19;28.50;;;17.93;;
12433;SDS011;6281;49.038;8.372;2022-12-20T01:59:49;23.97;;;18.07;;
12433;SDS011;6281;49.038;8.372;2022-12-20T02:02:19;25.70;;;17.57;;
12433;SDS011;6281;49.038;8.372;2022-12-20T02:04:46;23.57;;;17.17;;
12433;SDS011;6281;49.038;8.372;2022-12-20T02:07:14;25.57;;;18.47;;
12433;SDS011;6281;49.038;8.372;2022-12-20T02:09:45;26.73;;;17.90;;
12433;SDS011;6281;49.038;8.372;2022-12-20T02:12:13;24.50;;;17.17;;
12433;SDS011;6281;49.038;8.372;2022-12-20T02:14:47;26.40;;;17.40;;
12433;SDS011;6281;49.038;8.372;2022-12-20T02:17:29;22.70;;;16.47;;
12433;SDS011;6281;49.038;8.372;2022-12-20T02:20:20;24.17;;;17.10;;
12433;SDS011;6281;49.038;8.372;2022-12-20T02:23:10;23.07;;;17.10;;
12433;SDS011;6281;49.038;8.372;2022-12-20T02:25:57;24.33;;;18.87;;
12433;SDS011;6281;49.038;8.372;2022-12-20T02:28:44;26.17;;;18.57;;
12433;SDS011;6281;49.038;8.372;2022-12-20T02:31:25;24.10;;;17.33;;
12433;SDS011;6281;49.038;8.372;2022-12-20T02:33:56;26.10;;;18.10;;
12433;SDS011;6281;49.038;8.372;2022-12-20T02:36:24;23.10;;;17.53;;
12433;SDS011;6281;49.038;8.372;2022-12-20T02:38:51;23.93;;;17.10;;
12433;SDS011;6281;49.038;8.372;2022-12-20T02:41:20;25.10;;;17.33;;
12433;SDS011;6281;49.038;8.372;2022-12-20T02:43:52;26.07;;;17.00;;
12433;SDS011;6281;49.038;8.372;2022-12-20T02:46:40;24.67;;;17.20;;
12433;SDS011;6281;49.038;8.372;2022-12-20T02:49:08;24.03;;;16.77;;
12433;SDS011;6281;49.038;8.372;2022-12-20T02:51:38;25.37;;;17.03;;
12433;SDS011;6281;49.038;8.372;2022-12-20T02:54:08;23.70;;;17.03;;
12433;SDS011;6281;49.038;8.372;2022-12-20T02:56:36;24.10;;;17.70;;
12433;SDS011;6281;49.038;8.372;2022-12-20T02:59:07;23.50;;;17.17;;
12433;SDS011;6281;49.038;8.372;2022-12-20T03:01:41;23.47;;;17.03;;
12433;SDS011;6281;49.038;8.372;2022-12-20T03:04:11;22.10;;;16.33;;
12433;SDS011;6281;49.038;8.372;2022-12-20T03:06:38;23.13;;;16.43;;
12433;SDS011;6281;49.038;8.372;2022-12-20T03:09:20;22.43;;;16.60;;
12433;SDS011;6281;49.038;8.372;2022-12-20T03:11:47;21.43;;;16.10;;
12433;SDS011;6281;49.038;8.372;2022-12-20T03:14:14;24.63;;;16.93;;
12433;SDS011;6281;49.038;8.372;2022-12-20T03:16:42;25.53;;;16.73;;
12433;SDS011;6281;49.038;8.372;2022-12-20T03:19:09;23.23;;;17.60;;
12433;SDS011;6281;49.038;8.372;2022-12-20T03:21:36;23.57;;;15.57;;
12433;SDS011;6281;49.038;8.372;2022-12-20T03:24:03;23.47;;;16.00;;
12433;SDS011;6281;49.038;8.372;2022-12-20T03:26:30;23.27;;;16.20;;
12433;SDS011;6281;49.038;8.372;2022-12-20T03:28:57;21.80;;;15.00;;
12433;SDS011;6281;49.038;8.372;2022-12-20T03:31:24;22.27;;;15.43;;
12433;SDS011;6281;49.038;8.372;2022-12-20T03:33:52;20.67;;;14.33;;
12433;SDS011;6281;49.038;8.372;2022-12-20T03:36:21;21.80;;;16.57;;
12433;SDS011;6281;49.038;8.372;2022-12-20T03:38:48;24.13;;;16.53;;
12433;SDS011;6281;49.038;8.372;2022-12-20T03:41:15;21.37;;;15.33;;
12433;SDS011;6281;49.038;8.372;2022-12-20T03:43:42;21.97;;;16.00;;
12433;SDS011;6281;49.038;8.372;2022-12-20T03:46:09;21.07;;;15.47;;
12433;SDS011;6281;49.038;8.372;2022-12-20T03:48:35;22.83;;;16.30;;
12433;SDS011;6281;49.038;8.372;2022-12-20T03:51:04;22.90;;;16.77;;
12433;SDS011;6281;49.038;8.372;2022-12-20T03:53:31;23.13;;;16.47;;
12433;SDS011;6281;49.038;8.372;2022-12-20T03:55:58;23.83;;;16.83;;
12433;SDS011;6281;49.038;8.372;2022-12-20T03:58:25;20.93;;;16.03;;
12433;SDS011;6281;49.038;8.372;2022-12-20T04:00:52;22.77;;;16.97;;
12433;SDS011;6281;49.038;8.372;2022-12-20T04:03:21;24.50;;;16.70;;
12433;SDS011;6281;49.038;8.372;2022-12-20T04:05:48;22.57;;;16.40;;
12433;SDS011;6281;49.038;8.372;2022-12-20T04:08:16;26.43;;;16.00;;
12433;SDS011;6281;49.038;8.372;2022-12-20T04:10:43;22.37;;;16.20;;
12433;SDS011;6281;49.038;8.372;2022-12-20T04:13:28;21.67;;;15.77;;
12433;SDS011;6281;49.038;8.372;2022-12-20T04:15:54;23.67;;;15.50;;
12433;SDS011;6281;49.038;8.372;2022-12-20T04:18:21;24.37;;;16.40;;
12433;SDS011;6281;49.038;8.372;2022-12-20T04:20:51;24.23;;;16.13;;
12433;SDS011;6281;49.038;8.372;2022-12-20T04:23:20;21.70;;;16.60;;
12433;SDS011;6281;49.038;8.372;2022-12-20T04:25:47;22.20;;;16.13;;
12433;SDS011;6281;49.038;8.372;2022-12-20T04:28:14;20.07;;;15.50;;
12433;SDS011;6281;49.038;8.372;2022-12-20T04:30:40;21.90;;;16.63;;
12433;SDS011;6281;49.038;8.372;2022-12-20T04:33:07;23.17;;;15.93;;
12433;SDS011;6281;49.038;8.372;2022-12-20T04:35:35;21.00;;;15.37;;
12433;SDS011;6281;49.038;8.372;2022-12-20T04:38:02;22.90;;;15.70;;
12433;SDS011;6281;49.038;8.372;2022-12-20T04:40:31;20.80;;;15.30;;
12433;SDS011;6281;49.038;8.372;2022-12-20T04:42:57;21.17;;;15.50;;
12433;SDS011;6281;49.038;8.372;2022-12-20T04:45:24;23.47;;;15.43;;
12433;SDS011;6281;49.038;8.372;2022-12-20T04:47:51;20.83;;;16.10;;
12433;SDS011;6281;49.038;8.372;2022-12-20T04:50:18;20.40;;;15.27;;
12433;SDS011;6281;49.038;8.372;2022-12-20T04:52:45;21.47;;;15.23;;
12433;SDS011;6281;49.038;8.372;2022-12-20T04:55:32;22.17;;;15.53;;
12433;SDS011;6281;49.038;8.372;2022-12-20T04:58:02;22.10;;;15.77;;
12433;SDS011;6281;49.038;8.372;2022-12-20T05:00:29;20.03;;;16.03;;
12433;SDS011;6281;49.038;8.372;2022-12-20T05:02:57;21.07;;;16.07;;
12433;SDS011;6281;49.038;8.372;2022-12-20T05:05:24;22.27;;;15.83;;
12433;SDS011;6281;49.038;8.372;2022-12-20T05:07:51;20.10;;;15.07;;
12433;SDS011;6281;49.038;8.372;2022-12-20T05:10:18;19.87;;;15.37;;
12433;SDS011;6281;49.038;8.372;2022-12-20T05:12:47;19.90;;;14.73;;
12433;SDS011;6281;49.038;8.372;2022-12-20T05:15:14;20.53;;;15.10;;
12433;SDS011;6281;49.038;8.372;2022-12-20T05:17:41;20.33;;;14.03;;
12433;SDS011;6281;49.038;8.372;2022-12-20T05:20:08;22.70;;;15.90;;
12433;SDS011;6281;49.038;8.372;2022-12-20T05:22:36;20.87;;;15.70;;
12433;SDS011;6281;49.038;8.372;2022-12-20T05:25:20;23.80;;;15.73;;
12433;SDS011;6281;49.038;8.372;2022-12-20T05:28:06;19.87;;;16.13;;
12433;SDS011;6281;49.038;8.372;2022-12-20T05:30:33;23.30;;;15.60;;
12433;SDS011;6281;49.038;8.372;2022-12-20T05:33:00;22.77;;;15.60;;
12433;SDS011;6281;49.038;8.372;2022-12-20T05:35:27;19.80;;;14.73;;
12433;SDS011;6281;49.038;8.372;2022-12-20T05:37:54;22.00;;;16.27;;
12433;SDS011;6281;49.038;8.372;2022-12-20T05:40:21;22.60;;;15.60;;
12433;SDS011;6281;49.038;8.372;2022-12-20T05:42:48;21.67;;;16.13;;
12433;SDS011;6281;49.038;8.372;2022-12-20T05:45:16;21.40;;;16.30;;
12433;SDS011;6281;49.038;8.372;2022-12-20T05:47:43;25.03;;;16.60;;
12433;SDS011;6281;49.038;8.372;2022-12-20T05:50:10;23.70;;;16.77;;
12433;SDS011;6281;49.038;8.372;2022-12-20T05:52:37;19.13;;;14.83;;
12433;SDS011;6281;49.038;8.372;2022-12-20T05:55:04;20.37;;;15.50;;
12433;SDS011;6281;49.038;8.372;2022-12-20T05:57:31;22.10;;;15.83;;
12433;SDS011;6281;49.038;8.372;2022-12-20T05:59:58;20.47;;;15.40;;
12433;SDS011;6281;49.038;8.372;2022-12-20T06:02:26;21.67;;;15.97;;
12433;SDS011;6281;49.038;8.372;2022-12-20T06:04:53;21.10;;;15.73;;
12433;SDS011;6281;49.038;8.372;2022-12-20T06:07:21;22.10;;;16.37;;
12433;SDS011;6281;49.038;8.372;2022-12-20T06:09:48;23.27;;;16.47;;
12433;SDS011;6281;49.038;8.372;2022-12-20T06:12:15;21.57;;;15.17;;
12433;SDS011;6281;49.038;8.372;2022-12-20T06:14:42;23.17;;;15.50;;
12433;SDS011;6281;49.038;8.372;2022-12-20T06:17:09;21.33;;;16.50;;
12433;SDS011;6281;49.038;8.372;2022-12-20T06:19:38;19.70;;;14.77;;
12433;SDS011;6281;49.038;8.372;2022-12-20T06:22:05;21.23;;;15.67;;
12433;SDS011;6281;49.038;8.372;2022-12-20T06:24:32;21.43;;;15.60;;
12433;SDS011;6281;49.038;8.372;2022-12-20T06:26:59;20.03;;;15.50;;
12433;SDS011;6281;49.038;8.372;2022-12-20T06:29:27;22.00;;;16.27;;
12433;SDS011;6281;49.038;8.372;2022-12-20T06:31:54;24.37;;;17.07;;
12433;SDS011;6281;49.038;8.372;2022-12-20T06:34:21;26.37;;;16.77;;
12433;SDS011;6281;49.038;8.372;2022-12-20T06:36:49;21.67;;;16.07;;
12433;SDS011;6281;49.038;8.372;2022-12-20T06:39:16;21.60;;;16.37;;
12433;SDS011;6281;49.038;8.372;2022-12-20T06:41:43;20.53;;;15.17;;
12433;SDS011;6281;49.038;8.372;2022-12-20T06:44:10;20.80;;;16.30;;
12433;SDS011;6281;49.038;8.372;2022-12-20T06:46:37;21.63;;;15.87;;
12433;SDS011;6281;49.038;8.372;2022-12-20T06:49:04;23.50;;;15.77;;
12433;SDS011;6281;49.038;8.372;2022-12-20T06:51:31;20.20;;;15.00;;
12433;SDS011;6281;49.038;8.372;2022-12-20T06:53:59;22.17;;;16.27;;
12433;SDS011;6281;49.038;8.372;2022-12-20T06:56:26;24.37;;;15.47;;
12433;SDS011;6281;49.038;8.372;2022-12-20T06:58:53;24.70;;;16.60;;
12433;SDS011;6281;49.038;8.372;2022-12-20T07:01:20;21.37;;;16.00;;
12433;SDS011;6281;49.038;8.372;2022-12-20T07:03:47;22.70;;;16.97;;
12433;SDS011;6281;49.038;8.372;2022-12-20T07:06:13;22.30;;;15.27;;
12433;SDS011;6281;49.038;8.372;2022-12-20T07:08:40;21.70;;;16.43;;
12433;SDS011;6281;49.038;8.372;2022-12-20T07:11:09;25.07;;;16.47;;
12433;SDS011;6281;49.038;8.372;2022-12-20T07:13:36;23.23;;;14.93;;
12433;SDS011;6281;49.038;8.372;2022-12-20T07:16:03;24.03;;;16.30;;
12433;SDS011;6281;49.038;8.372;2022-12-20T07:18:30;26.20;;;16.00;;
12433;SDS011;6281;49.038;8.372;2022-12-20T07:20:59;23.00;;;16.03;;
12433;SDS011;6281;49.038;8.372;2022-12-20T07:23:26;24.57;;;17.10;;
12433;SDS011;6281;49.038;8.372;2022-12-20T07:25:54;24.00;;;16.50;;
12433;SDS011;6281;49.038;8.372;2022-12-20T07:28:23;23.33;;;16.03;;
12433;SDS011;6281;49.038;8.372;2022-12-20T07:30:51;19.80;;;13.87;;
12433;SDS011;6281;49.038;8.372;2022-12-20T07:33:18;22.50;;;15.37;;
12433;SDS011;6281;49.038;8.372;2022-12-20T07:35:46;25.57;;;17.30;;
12433;SDS011;6281;49.038;8.372;2022-12-20T07:38:12;23.80;;;17.37;;
12433;SDS011;6281;49.038;8.372;2022-12-20T07:40:39;23.63;;;17.13;;
12433;SDS011;6281;49.038;8.372;2022-12-20T07:43:07;24.97;;;17.93;;
12433;SDS011;6281;49.038;8.372;2022-12-20T07:45:35;42.33;;;27.77;;
12433;SDS011;6281;49.038;8.372;2022-12-20T07:48:02;28.53;;;20.07;;
12433;SDS011;6281;49.038;8.372;2022-12-20T07:50:29;30.30;;;19.07;;
12433;SDS011;6281;49.038;8.372;2022-12-20T07:52:58;21.27;;;16.80;;
12433;SDS011;6281;49.038;8.372;2022-12-20T07:55:26;22.23;;;16.97;;
12433;SDS011;6281;49.038;8.372;2022-12-20T07:57:55;20.33;;;16.00;;
12433;SDS011;6281;49.038;8.372;2022-12-20T08:00:27;22.53;;;16.90;;
12433;SDS011;6281;49.038;8.372;2022-12-20T08:02:56;26.67;;;18.13;;
12433;SDS011;6281;49.038;8.372;2022-12-20T08:05:29;23.63;;;17.13;;
12433;SDS011;6281;49.038;8.372;2022-12-20T08:07:56;24.27;;;16.73;;
12433;SDS011;6281;49.038;8.372;2022-12-20T08:10:25;26.47;;;17.17;;
12433;SDS011;6281;49.038;8.372;2022-12-20T08:12:52;26.60;;;17.10;;
12433;SDS011;6281;49.038;8.372;2022-12-20T08:15:20;24.03;;;16.27;;
12433;SDS011;6281;49.038;8.372;2022-12-20T08:17:47;22.10;;;16.30;;
12433;SDS011;6281;49.038;8.372;2022-12-20T08:20:16;25.30;;;15.50;;
12433;SDS011;6281;49.038;8.372;2022-12-20T08:22:43;23.20;;;16.17;;
12433;SDS011;6281;49.038;8.372;2022-12-20T08:25:10;25.33;;;18.07;;
12433;SDS011;6281;49.038;8.372;2022-12-20T08:27:37;24.57;;;17.13;;
12433;SDS011;6281;49.038;8.372;2022-12-20T08:30:05;26.63;;;18.10;;
12433;SDS011;6281;49.038;8.372;2022-12-20T08:32:34;24.67;;;17.70;;
12433;SDS011;6281;49.038;8.372;2022-12-20T08:35:01;26.97;;;18.50;;
12433;SDS011;6281;49.038;8.372;2022-12-20T08:37:29;29.23;;;19.83;;
12433;SDS011;6281;49.038;8.372;2022-12-20T08:39:56;26.87;;;19.77;;
12433;SDS011;6281;49.038;8.372;2022-12-20T08:42:24;28.87;;;19.87;;
12433;SDS011;6281;49.038;8.372;2022-12-20T08:44:51;36.03;;;24.97;;
12433;SDS011;6281;49.038;8.372;2022-12-20T08:47:18;34.90;;;25.37;;
12433;SDS011;6281;49.038;8.372;2022-12-20T08:49:45;43.23;;;27.30;;
12433;SDS011;6281;49.038;8.372;2022-12-20T08:52:12;35.23;;;24.00;;
12433;SDS011;6281;49.038;8.372;2022-12-20T08:54:40;31.87;;;23.20;;
12433;SDS011;6281;49.038;8.372;2022-12-20T08:57:07;25.20;;;19.40;;
12433;SDS011;6281;49.038;8.372;2022-12-20T08:59:34;27.00;;;18.87;;
12433;SDS011;6281;49.038;8.372;2022-12-20T09:02:01;22.07;;;17.00;;
12433;SDS011;6281;49.038;8.372;2022-12-20T09:04:28;21.27;;;16.60;;
12433;SDS011;6281;49.038;8.372;2022-12-20T09:06:55;20.20;;;13.90;;
12433;SDS011;6281;49.038;8.372;2022-12-20T09:09:22;18.47;;;13.47;;
12433;SDS011;6281;49.038;8.372;2022-12-20T09:11:50;20.60;;;13.90;;
12433;SDS011;6281;49.038;8.372;2022-12-20T09:14:17;19.47;;;14.30;;
12433;SDS011;6281;49.038;8.372;2022-12-20T09:16:44;21.43;;;14.67;;
12433;SDS011;6281;49.038;8.372;2022-12-20T09:19:12;20.13;;;14.43;;
12433;SDS011;6281;49.038;8.372;2022-12-20T09:21:40;18.47;;;13.33;;
12433;SDS011;6281;49.038;8.372;2022-12-20T09:24:07;19.03;;;13.93;;
12433;SDS011;6281;49.038;8.372;2022-12-20T09:26:36;21.23;;;14.83;;
12433;SDS011;6281;49.038;8.372;2022-12-20T09:29:06;22.50;;;14.23;;
12433;SDS011;6281;49.038;8.372;2022-12-20T09:31:33;17.37;;;12.80;;
12433;SDS011;6281;49.038;8.372;2022-12-20T09:34:00;22.03;;;13.97;;
12433;SDS011;6281;49.038;8.372;2022-12-20T09:36:28;20.70;;;14.03;;
12433;SDS011;6281;49.038;8.372;2022-12-20T09:38:55;19.13;;;13.43;;
12433;SDS011;6281;49.038;8.372;2022-12-20T09:41:28;18.30;;;13.10;;
12433;SDS011;6281;49.038;8.372;2022-12-20T09:43:59;19.33;;;12.97;;
12433;SDS011;6281;49.038;8.372;2022-12-20T09:46:32;15.30;;;11.50;;
12433;SDS011;6281;49.038;8.372;2022-12-20T09:48:59;18.67;;;11.80;;
12433;SDS011;6281;49.038;8.372;2022-12-20T09:51:29;17.60;;;12.30;;
12433;SDS011;6281;49.038;8.372;2022-12-20T09:54:07;16.47;;;12.30;;
12433;SDS011;6281;49.038;8.372;2022-12-20T09:56:43;17.30;;;13.30;;
12433;SDS011;6281;49.038;8.372;2022-12-20T09:59:17;17.27;;;11.80;;
12433;SDS011;6281;49.038;8.372;2022-12-20T10:01:47;14.93;;;12.23;;
12433;SDS011;6281;49.038;8.372;2022-12-20T10:04:18;18.03;;;12.47;;
12433;SDS011;6281;49.038;8.372;2022-12-20T10:06:50;19.90;;;12.30;;
12433;SDS011;6281;49.038;8.372;2022-12-20T10:09:29;17.17;;;12.90;;
12433;SDS011;6281;49.038;8.372;2022-12-20T10:12:10;17.80;;;12.50;;
12433;SDS011;6281;49.038;8.372;2022-12-20T10:14:49;16.43;;;11.23;;
12433;SDS011;6281;49.038;8.372;2022-12-20T10:17:32;20.10;;;10.93;;
12433;SDS011;6281;49.038;8.372;2022-12-20T10:20:17;15.83;;;11.07;;
12433;SDS011;6281;49.038;8.372;2022-12-20T10:23:03;17.53;;;11.77;;
12433;SDS011;6281;49.038;8.372;2022-12-20T10:25:35;15.70;;;10.87;;
12433;SDS011;6281;49.038;8.372;2022-12-20T10:28:03;15.43;;;10.70;;
12433;SDS011;6281;49.038;8.372;2022-12-20T10:30:35;16.63;;;10.97;;
12433;SDS011;6281;49.038;8.372;2022-12-20T10:33:04;15.93;;;11.50;;
12433;SDS011;6281;49.038;8.372;2022-12-20T10:35:32;14.47;;;10.60;;
12433;SDS011;6281;49.038;8.372;2022-12-20T10:38:03;15.23;;;10.73;;
12433;SDS011;6281;49.038;8.372;2022-12-20T10:40:32;14.63;;;10.93;;
12433;SDS011;6281;49.038;8.372;2022-12-20T10:43:00;16.87;;;10.90;;
12433;SDS011;6281;49.038;8.372;2022-12-20T10:45:32;15.50;;;11.17;;
12433;SDS011;6281;49.038;8.372;2022-12-20T10:48:02;14.83;;;11.20;;
12433;SDS011;6281;49.038;8.372;2022-12-20T10:50:32;14.50;;;10.90;;
12433;SDS011;6281;49.038;8.372;2022-12-20T10:53:01;13.63;;;11.13;;
12433;SDS011;6281;49.038;8.372;2022-12-20T10:55:38;15.80;;;11.10;;
12433;SDS011;6281;49.038;8.372;2022-12-20T10:58:11;13.70;;;10.57;;
12433;SDS011;6281;49.038;8.372;2022-12-20T11:00:40;17.63;;;10.33;;
12433;SDS011;6281;49.038;8.372;2022-12-20T11:03:14;15.10;;;10.73;;
12433;SDS011;6281;49.038;8.372;2022-12-20T11:05:53;15.50;;;11.37;;
12433;SDS011;6281;49.038;8.372;2022-12-20T11:08:23;16.27;;;11.10;;
12433;SDS011;6281;49.038;8.372;2022-12-20T11:10:51;15.63;;;10.73;;
12433;SDS011;6281;49.038;8.372;2022-12-20T11:13:37;15.93;;;10.60;;
12433;SDS011;6281;49.038;8.372;2022-12-20T11:16:05;16.07;;;11.23;;
12433;SDS011;6281;49.038;8.372;2022-12-20T11:18:49;15.37;;;10.80;;
12433;SDS011;6281;49.038;8.372;2022-12-20T11:21:23;15.17;;;11.87;;
12433;SDS011;6281;49.038;8.372;2022-12-20T11:24:01;16.17;;;10.73;;
12433;SDS011;6281;49.038;8.372;2022-12-20T11:26:37;15.03;;;10.80;;
12433;SDS011;6281;49.038;8.372;2022-12-20T11:29:23;14.43;;;11.63;;
12433;SDS011;6281;49.038;8.372;2022-12-20T11:32:08;13.30;;;10.80;;
12433;SDS011;6281;49.038;8.372;2022-12-20T11:34:51;16.93;;;11.33;;
12433;SDS011;6281;49.038;8.372;2022-12-20T11:37:26;16.60;;;11.57;;
12433;SDS011;6281;49.038;8.372;2022-12-20T11:40:05;16.47;;;12.07;;
12433;SDS011;6281;49.038;8.372;2022-12-20T11:42:48;14.30;;;10.80;;
12433;SDS011;6281;49.038;8.372;2022-12-20T11:45:24;16.60;;;10.73;;
12433;SDS011;6281;49.038;8.372;2022-12-20T11:48:00;14.67;;;11.43;;
12433;SDS011;6281;49.038;8.372;2022-12-20T11:50:52;19.10;;;12.60;;
12433;SDS011;6281;49.038;8.372;2022-12-20T11:53:31;13.37;;;10.87;;
12433;SDS011;6281;49.038;8.372;2022-12-20T11:56:02;16.83;;;11.97;;
12433;SDS011;6281;49.038;8.372;2022-12-20T11:58:37;14.17;;;11.70;;
12433;SDS011;6281;49.038;8.372;2022-12-20T12:01:15;16.50;;;12.10;;
12433;SDS011;6281;49.038;8.372;2022-12-20T12:03:45;16.90;;;12.57;;
12433;SDS011;6281;49.038;8.372;2022-12-20T12:06:22;14.77;;;11.50;;
12433;SDS011;6281;49.038;8.372;2022-12-20T12:08:56;15.43;;;12.07;;
12433;SDS011;6281;49.038;8.372;2022-12-20T12:11:34;20.50;;;14.00;;
12433;SDS011;6281;49.038;8.372;2022-12-20T12:14:05;19.47;;;12.30;;
12433;SDS011;6281;49.038;8.372;2022-12-20T12:16:39;18.40;;;12.93;;
12433;SDS011;6281;49.038;8.372;2022-12-20T12:19:11;17.03;;;12.73;;
12433;SDS011;6281;49.038;8.372;2022-12-20T12:21:41;16.90;;;13.33;;
12433;SDS011;6281;49.038;8.372;2022-12-20T12:24:14;17.60;;;12.57;;
12433;SDS011;6281;49.038;8.372;2022-12-20T12:26:46;18.07;;;13.80;;
12433;SDS011;6281;49.038;8.372;2022-12-20T12:29:14;16.57;;;12.40;;
12433;SDS011;6281;49.038;8.372;2022-12-20T12:31:44;16.87;;;13.17;;
12433;SDS011;6281;49.038;8.372;2022-12-20T12:34:18;15.93;;;11.97;;
12433;SDS011;6281;49.038;8.372;2022-12-20T12:37:08;14.63;;;11.63;;
12433;SDS011;6281;49.038;8.372;2022-12-20T12:40:05;17.87;;;12.43;;
12433;SDS011;6281;49.038;8.372;2022-12-20T12:42:52;19.13;;;13.73;;
12433;SDS011;6281;49.038;8.372;2022-12-20T12:45:45;18.63;;;12.50;;
12433;SDS011;6281;49.038;8.372;2022-12-20T12:48:15;16.07;;;12.10;;
12433;SDS011;6281;49.038;8.372;2022-12-20T12:50:48;17.90;;;12.50;;
12433;SDS011;6281;49.038;8.372;2022-12-20T12:53:20;17.83;;;12.67;;
12433;SDS011;6281;49.038;8.372;2022-12-20T12:55:51;17.13;;;12.70;;
12433;SDS011;6281;49.038;8.372;2022-12-20T13:01:08;14.17;;;11.27;;
12433;SDS011;6281;49.038;8.372;2022-12-20T13:03:38;14.93;;;11.07;;
12433;SDS011;6281;49.038;8.372;2022-12-20T13:09:16;19.63;;;13.20;;
12433;SDS011;6281;49.038;8.372;2022-12-20T13:11:46;17.10;;;11.70;;
12433;SDS011;6281;49.038;8.372;2022-12-20T13:17:45;15.60;;;12.20;;
12433;SDS011;6281;49.038;8.372;2022-12-20T13:20:19;14.17;;;11.00;;
12433;SDS011;6281;49.038;8.372;2022-12-20T13:23:04;16.07;;;12.47;;
12433;SDS011;6281;49.038;8.372;2022-12-20T13:25:40;15.80;;;11.17;;
12433;SDS011;6281;49.038;8.372;2022-12-20T13:33:58;17.80;;;11.63;;
12433;SDS011;6281;49.038;8.372;2022-12-20T13:36:31;15.37;;;11.03;;
12433;SDS011;6281;49.038;8.372;2022-12-20T13:39:02;14.43;;;11.67;;
12433;SDS011;6281;49.038;8.372;2022-12-20T13:41:47;16.83;;;12.10;;
12433;SDS011;6281;49.038;8.372;2022-12-20T13:44:29;17.30;;;11.97;;
12433;SDS011;6281;49.038;8.372;2022-12-20T13:47:02;16.90;;;11.53;;
12433;SDS011;6281;49.038;8.372;2022-12-20T13:49:38;16.13;;;11.57;;
12433;SDS011;6281;49.038;8.372;2022-12-20T13:52:21;16.67;;;11.30;;
12433;SDS011;6281;49.038;8.372;2022-12-20T13:54:52;18.77;;;11.90;;
12433;SDS011;6281;49.038;8.372;2022-12-20T13:57:26;14.87;;;11.83;;
12433;SDS011;6281;49.038;8.372;2022-12-20T13:59:56;15.93;;;12.07;;
12433;SDS011;6281;49.038;8.372;2022-12-20T14:02:27;16.60;;;11.50;;
12433;SDS011;6281;49.038;8.372;2022-12-20T14:04:57;18.63;;;11.40;;
12433;SDS011;6281;49.038;8.372;2022-12-20T14:07:27;14.77;;;10.93;;
12433;SDS011;6281;49.038;8.372;2022-12-20T14:09:57;18.33;;;12.17;;
12433;SDS011;6281;49.038;8.372;2022-12-20T14:12:27;16.00;;;12.20;;
12433;SDS011;6281;49.038;8.372;2022-12-20T14:14:55;16.50;;;12.07;;
12433;SDS011;6281;49.038;8.372;2022-12-20T14:17:23;14.30;;;11.23;;
12433;SDS011;6281;49.038;8.372;2022-12-20T14:20:04;17.33;;;12.50;;
12433;SDS011;6281;49.038;8.372;2022-12-20T14:22:39;20.33;;;12.10;;
12433;SDS011;6281;49.038;8.372;2022-12-20T14:25:08;17.53;;;11.63;;
12433;SDS011;6281;49.038;8.372;2022-12-20T14:27:42;14.63;;;11.80;;
12433;SDS011;6281;49.038;8.372;2022-12-20T14:30:23;18.70;;;11.93;;
12433;SDS011;6281;49.038;8.372;2022-12-20T14:33:12;18.13;;;12.00;;
12433;SDS011;6281;49.038;8.372;2022-12-20T14:35:50;14.87;;;11.63;;
12433;SDS011;6281;49.038;8.372;2022-12-20T14:38:21;19.07;;;11.97;;
12433;SDS011;6281;49.038;8.372;2022-12-20T14:40:49;16.27;;;11.67;;
12433;SDS011;6281;49.038;8.372;2022-12-20T14:43:23;16.20;;;12.20;;
12433;SDS011;6281;49.038;8.372;2022-12-20T14:46:05;20.03;;;12.23;;
12433;SDS011;6281;49.038;8.372;2022-12-20T14:48:33;20.80;;;11.77;;
12433;SDS011;6281;49.038;8.372;2022-12-20T14:51:03;16.27;;;11.10;;
12433;SDS011;6281;49.038;8.372;2022-12-20T14:53:31;17.13;;;11.67;;
12433;SDS011;6281;49.038;8.372;2022-12-20T14:55:58;16.97;;;12.17;;
12433;SDS011;6281;49.038;8.372;2022-12-20T14:58:28;12.63;;;11.23;;
12433;SDS011;6281;49.038;8.372;2022-12-20T15:00:57;14.33;;;11.40;;
12433;SDS011;6281;49.038;8.372;2022-12-20T15:03:26;17.00;;;11.80;;
12433;SDS011;6281;49.038;8.372;2022-12-20T15:05:54;13.70;;;11.17;;
12433;SDS011;6281;49.038;8.372;2022-12-20T15:08:23;22.57;;;17.97;;
12433;SDS011;6281;49.038;8.372;2022-12-20T15:10:53;19.80;;;14.53;;